Time;durP1;ratioP1;P1;durP2;ratioP2;P2;SDS_P1;SDS_P2;PMS_P1;PMS_P2;Temp;Humidity;BMP_temperature;BMP_pressure;BME280_temperature;BME280_humidity;BME280_pressure;Samples;Min_cycle;Max_cycle;Signal;HPM_P1;HPM_P2
2023/12/12 00:00:54;;;;;;;6.32;2.92;;;;;;;5.89;100.00;96871.69;5094405;28;20383;-78
2023/12/12 00:03:20;;;;;;;18.65;3.75;;;;;;;5.83;100.00;96879.44;5083003;28;20526;-81
2023/12/12 00:05:47;;;;;;;6.70;3.15;;;;;;;5.77;100.00;96866.44;5055393;28;20399;-79
2023/12/12 00:08:13;;;;;;;7.30;3.40;;;;;;;5.71;100.00;96862.13;5078206;28;20411;-79
2023/12/12 00:10:39;;;;;;;10.05;3.42;;;;;;;5.66;100.00;96875.94;5072730;28;20423;-79
2023/12/12 00:13:06;;;;;;;10.18;3.13;;;;;;;5.66;100.00;96872.50;5073439;28;20876;-79
2023/12/12 00:15:32;;;;;;;5.87;3.00;;;;;;;5.63;100.00;96871.16;5075192;28;20396;-79
2023/12/12 00:18:00;;;;;;;7.15;3.17;;;;;;;5.63;100.00;96865.13;5076331;28;20483;-79
2023/12/12 00:20:26;;;;;;;7.25;3.20;;;;;;;5.63;100.00;96867.75;5078980;28;20392;-79
2023/12/12 00:22:52;;;;;;;4.15;2.80;;;;;;;5.63;100.00;96873.00;5080670;28;20498;-79
2023/12/12 00:25:18;;;;;;;10.60;3.80;;;;;;;5.65;100.00;96871.72;5079745;28;20490;-80
2023/12/12 00:27:44;;;;;;;7.50;3.50;;;;;;;5.67;100.00;96879.38;5079935;28;20884;-79
2023/12/12 00:30:13;;;;;;;7.75;3.42;;;;;;;5.68;100.00;96888.84;5080918;28;20400;-79
2023/12/12 00:32:39;;;;;;;8.30;3.40;;;;;;;5.68;100.00;96888.84;5083888;28;20403;-79
2023/12/12 00:35:08;;;;;;;6.18;3.10;;;;;;;5.67;100.00;96882.00;5083216;28;20395;-80
2023/12/12 00:37:34;;;;;;;6.68;3.30;;;;;;;5.65;100.00;96878.78;5080215;28;20395;-80
2023/12/12 00:40:00;;;;;;;8.25;3.08;;;;;;;5.67;100.00;96882.00;5080346;28;20392;-79
2023/12/12 00:42:26;;;;;;;8.02;3.25;;;;;;;5.68;100.00;96878.34;5079606;28;20407;-79
2023/12/12 00:44:52;;;;;;;6.15;3.00;;;;;;;5.69;100.00;96888.63;5079663;28;20422;-79
2023/12/12 00:47:19;;;;;;;9.03;2.90;;;;;;;5.69;100.00;96879.94;5079836;28;20427;-79
2023/12/12 00:49:45;;;;;;;7.05;3.10;;;;;;;5.68;100.00;96886.22;5079700;28;20419;-80
2023/12/12 00:52:12;;;;;;;9.80;3.03;;;;;;;5.65;100.00;96892.72;5080077;28;20395;-79
2023/12/12 00:54:38;;;;;;;12.37;3.77;;;;;;;5.65;100.00;96891.91;5079895;28;20395;-79
2023/12/12 00:57:04;;;;;;;8.20;3.35;;;;;;;5.63;100.00;96894.00;5080894;28;20403;-79
2023/12/12 00:59:31;;;;;;;11.90;3.70;;;;;;;5.63;100.00;96883.50;5079513;28;20437;-81
2023/12/12 01:01:57;;;;;;;5.85;2.58;;;;;;;5.63;100.00;96883.50;5073660;28;20402;-79
2023/12/12 01:04:23;;;;;;;12.75;2.88;;;;;;;5.64;100.00;96885.09;5098750;28;20445;-79
2023/12/12 01:06:49;;;;;;;11.48;3.00;;;;;;;5.66;100.00;96878.56;5100185;28;20397;-80
2023/12/12 01:09:16;;;;;;;5.60;2.60;;;;;;;5.68;100.00;96880.97;5103098;28;20394;-80
2023/12/12 01:11:43;;;;;;;5.65;2.80;;;;;;;5.70;100.00;96873.66;5102853;28;20405;-80
2023/12/12 01:14:09;;;;;;;5.53;3.10;;;;;;;5.72;100.00;96889.97;5103178;28;20398;-80
2023/12/12 01:16:35;;;;;;;5.47;2.80;;;;;;;5.75;100.00;96886.88;5103259;28;20405;-81
2023/12/12 01:19:02;;;;;;;8.45;2.78;;;;;;;5.79;100.00;96894.06;5103289;28;20401;-80
2023/12/12 01:21:28;;;;;;;4.55;2.47;;;;;;;5.84;100.00;96880.25;5103635;28;20512;-80
2023/12/12 01:23:55;;;;;;;7.22;2.85;;;;;;;5.87;100.00;96881.59;5102549;28;20422;-80
2023/12/12 01:26:24;;;;;;;6.57;2.92;;;;;;;5.89;100.00;96872.47;5101910;28;20489;-78
2023/12/12 01:28:52;;;;;;;4.22;2.30;;;;;;;5.94;100.00;96877.06;5102548;28;20406;-80
2023/12/12 01:31:18;;;;;;;3.28;2.25;;;;;;;5.97;100.00;96877.38;5101424;28;20386;-78
2023/12/12 01:33:45;;;;;;;5.40;2.45;;;;;;;5.99;100.00;96877.94;5097973;28;20488;-78
2023/12/12 01:36:11;;;;;;;7.95;2.60;;;;;;;6.03;100.00;96871.16;5099734;28;20389;-78
2023/12/12 01:38:37;;;;;;;3.85;2.30;;;;;;;6.06;100.00;96864.66;5095723;28;20485;-78
2023/12/12 01:41:04;;;;;;;2.97;2.10;;;;;;;6.08;100.00;96852.09;5096197;28;20401;-78
2023/12/12 01:43:33;;;;;;;5.15;2.30;;;;;;;6.10;100.00;96860.53;5101322;28;20432;-80
2023/12/12 01:46:01;;;;;;;5.18;2.30;;;;;;;6.12;100.00;96850.56;5102017;28;20788;-80
2023/12/12 01:48:29;;;;;;;5.25;2.38;;;;;;;6.11;100.00;96851.59;5100260;28;20811;-78
2023/12/12 01:50:56;;;;;;;3.78;2.40;;;;;;;6.10;100.00;96847.38;5098079;28;20504;-78
2023/12/12 01:53:27;;;;;;;3.80;2.10;;;;;;;6.08;100.00;96846.84;5099707;28;20393;-80
2023/12/12 01:55:55;;;;;;;2.70;2.28;;;;;;;6.07;100.00;96861.00;5105559;28;20382;-81
2023/12/12 01:58:23;;;;;;;6.78;2.28;;;;;;;6.04;100.00;96848.31;5105263;28;20405;-80
2023/12/12 02:00:52;;;;;;;6.80;2.53;;;;;;;6.01;100.00;96848.81;5098920;28;20418;-79
2023/12/12 02:03:19;;;;;;;5.10;2.30;;;;;;;5.95;100.00;96852.34;5095011;28;20501;-79
2023/12/12 02:05:47;;;;;;;3.97;2.22;;;;;;;5.88;100.00;96842.00;5101651;28;20401;-78
2023/12/12 02:08:13;;;;;;;7.13;2.20;;;;;;;5.81;100.00;96839.47;5098303;28;20416;-78
2023/12/12 02:10:40;;;;;;;5.90;2.50;;;;;;;5.74;100.00;96833.56;5095522;28;20428;-79
2023/12/12 02:13:06;;;;;;;2.95;1.90;;;;;;;5.68;100.00;96833.69;5094777;28;20420;-78
2023/12/12 02:15:33;;;;;;;5.53;2.55;;;;;;;5.61;100.00;96838.28;5094157;28;20397;-78
2023/12/12 02:18:00;;;;;;;8.32;2.60;;;;;;;5.54;100.00;96835.00;5095033;28;20390;-78
2023/12/12 02:20:27;;;;;;;3.42;2.40;;;;;;;5.49;100.00;96833.06;5095343;28;20436;-78
2023/12/12 02:22:54;;;;;;;5.18;2.10;;;;;;;5.43;100.00;96824.28;5095202;28;20423;-78
2023/12/12 02:25:20;;;;;;;5.60;2.40;;;;;;;5.39;100.00;96822.38;5094899;28;20435;-78
2023/12/12 02:27:47;;;;;;;6.60;3.00;;;;;;;5.35;100.00;96808.91;5098444;28;20874;-80
2023/12/12 02:30:16;;;;;;;4.35;2.60;;;;;;;5.30;100.00;96811.44;5097356;28;20391;-79
2023/12/12 02:32:42;;;;;;;6.10;2.70;;;;;;;5.26;100.00;96812.91;5100418;28;20390;-80
2023/12/12 02:35:08;;;;;;;6.85;2.85;;;;;;;5.23;100.00;96810.75;5098378;28;20397;-78
2023/12/12 02:37:34;;;;;;;9.48;2.90;;;;;;;5.20;100.00;96820.91;5097030;28;20394;-80
2023/12/12 02:40:03;;;;;;;5.53;2.35;;;;;;;5.16;100.00;96825.81;5097260;28;20901;-79
2023/12/12 02:42:29;;;;;;;5.13;2.72;;;;;;;5.14;100.00;96834.94;5100594;28;20393;-80
2023/12/12 02:44:57;;;;;;;8.98;3.10;;;;;;;5.10;100.00;96832.00;5097849;28;20421;-80
2023/12/12 02:47:23;;;;;;;8.60;2.80;;;;;;;5.08;100.00;96831.44;5098420;28;20390;-78
2023/12/12 02:49:49;;;;;;;5.47;2.92;;;;;;;5.05;100.00;96831.88;5098096;28;20428;-79
2023/12/12 02:52:15;;;;;;;5.03;2.83;;;;;;;5.02;100.00;96835.78;5097577;28;20454;-79
2023/12/12 02:54:41;;;;;;;4.50;2.87;;;;;;;5.03;100.00;96831.31;5098177;28;20437;-79
2023/12/12 02:57:09;;;;;;;7.43;2.97;;;;;;;5.03;100.00;96828.69;5098278;28;20390;-79
2023/12/12 02:59:35;;;;;;;5.28;2.80;;;;;;;5.03;100.00;96826.88;5098558;28;20394;-79
2023/12/12 03:02:01;;;;;;;6.65;3.05;;;;;;;5.05;100.00;96831.88;5098473;28;20398;-78
2023/12/12 03:04:27;;;;;;;4.70;2.80;;;;;;;5.05;100.00;96832.66;5078027;28;20462;-80
2023/12/12 03:06:53;;;;;;;5.70;3.05;;;;;;;5.07;100.00;96821.94;5079245;28;20402;-80
2023/12/12 03:09:20;;;;;;;5.75;2.90;;;;;;;5.10;100.00;96833.81;5077237;28;20529;-79
2023/12/12 03:11:46;;;;;;;5.45;2.70;;;;;;;5.09;100.00;96819.91;5076559;28;20748;-78
2023/12/12 03:14:13;;;;;;;6.57;3.10;;;;;;;5.15;100.00;96826.84;5076636;28;20395;-80
2023/12/12 03:16:39;;;;;;;6.05;2.90;;;;;;;5.19;100.00;96827.97;5076845;28;21089;-80
2023/12/12 03:19:05;;;;;;;7.50;3.28;;;;;;;5.23;100.00;96823.06;5076876;28;20391;-79
2023/12/12 03:21:32;;;;;;;7.75;3.05;;;;;;;5.30;100.00;96805.38;5076542;28;20392;-79
2023/12/12 03:23:58;;;;;;;4.53;3.00;;;;;;;5.38;100.00;96812.91;5077298;28;20422;-79
2023/12/12 03:26:24;;;;;;;8.82;3.15;;;;;;;5.42;100.00;96804.31;5077500;28;20404;-80
2023/12/12 03:28:51;;;;;;;10.85;3.42;;;;;;;5.48;100.00;96799.19;5077079;28;20400;-80
2023/12/12 03:31:18;;;;;;;8.68;3.10;;;;;;;5.52;100.00;96789.81;5077513;28;20576;-79
2023/12/12 03:33:44;;;;;;;5.72;2.70;;;;;;;5.55;100.00;96799.84;5084586;28;20442;-79
2023/12/12 03:36:11;;;;;;;6.60;3.00;;;;;;;5.56;100.00;96791.75;5082152;28;20388;-79
2023/12/12 03:38:37;;;;;;;6.10;2.70;;;;;;;5.60;100.00;96803.38;5077259;28;20402;-79
2023/12/12 03:41:03;;;;;;;5.50;2.80;;;;;;;5.64;100.00;96795.84;5076831;28;20783;-78
2023/12/12 03:43:29;;;;;;;6.18;3.00;;;;;;;5.65;100.00;96794.78;5077865;28;20412;-79
2023/12/12 03:45:55;;;;;;;4.20;2.40;;;;;;;5.68;100.00;96792.50;5077057;28;20407;-79
2023/12/12 03:48:23;;;;;;;5.55;3.10;;;;;;;5.66;100.00;96788.50;5076804;28;20437;-79
2023/12/12 03:50:49;;;;;;;4.78;2.67;;;;;;;5.62;100.00;96766.38;5079832;28;20932;-79
2023/12/12 03:53:15;;;;;;;4.25;2.30;;;;;;;5.57;100.00;96769.69;5082307;28;20821;-80
2023/12/12 03:55:42;;;;;;;5.38;2.25;;;;;;;5.49;100.00;96761.41;5086373;28;20398;-79
2023/12/12 03:58:08;;;;;;;3.97;2.38;;;;;;;5.42;100.00;96754.44;5080776;28;20384;-80
2023/12/12 04:00:34;;;;;;;3.38;2.30;;;;;;;5.34;100.00;96757.44;5081710;28;20408;-79
2023/12/12 04:03:00;;;;;;;6.10;2.25;;;;;;;5.26;100.00;96757.81;5081661;28;20399;-80
2023/12/12 04:05:28;;;;;;;5.95;2.30;;;;;;;5.20;100.00;96755.31;5080992;28;20437;-79
2023/12/12 04:07:54;;;;;;;4.93;2.60;;;;;;;5.13;100.00;96759.91;5082122;28;20395;-78
2023/12/12 04:10:20;;;;;;;4.13;2.28;;;;;;;5.06;100.00;96754.78;5081104;28;20407;-80
2023/12/12 04:12:48;;;;;;;5.10;2.40;;;;;;;5.00;100.00;96750.47;5080724;28;20474;-80
2023/12/12 04:15:14;;;;;;;2.97;2.27;;;;;;;4.92;100.00;96746.38;5080430;28;20396;-79
2023/12/12 04:17:40;;;;;;;7.50;2.70;;;;;;;4.88;100.00;96747.88;5097156;28;20398;-80
2023/12/12 04:20:07;;;;;;;5.13;2.65;;;;;;;4.81;100.00;96741.94;5101000;28;20402;-79
2023/12/12 04:22:35;;;;;;;7.07;2.80;;;;;;;4.75;100.00;96744.66;5099493;28;20398;-79
2023/12/12 04:25:01;;;;;;;5.40;2.80;;;;;;;4.68;100.00;96748.22;5100253;28;20421;-79
2023/12/12 04:27:28;;;;;;;5.47;2.85;;;;;;;4.64;100.00;96751.53;5101445;28;20398;-79
2023/12/12 04:29:54;;;;;;;6.50;3.08;;;;;;;4.60;100.00;96745.13;5104911;28;20762;-79
2023/12/12 04:32:20;;;;;;;4.97;2.78;;;;;;;4.56;100.00;96742.19;5100316;28;20937;-80
2023/12/12 04:34:46;;;;;;;6.07;2.70;;;;;;;4.53;100.00;96742.63;5100099;28;20884;-78
2023/12/12 04:37:12;;;;;;;5.63;2.70;;;;;;;4.52;100.00;96745.47;5099680;28;20739;-78
2023/12/12 04:39:40;;;;;;;4.63;2.70;;;;;;;4.52;100.00;96745.47;5098989;28;20716;-80
2023/12/12 04:42:06;;;;;;;4.93;2.80;;;;;;;4.52;100.00;96748.91;5100000;28;20397;-80
2023/12/12 04:44:33;;;;;;;7.30;2.97;;;;;;;4.53;100.00;96754.94;5099431;28;20775;-78
2023/12/12 04:46:59;;;;;;;5.95;2.70;;;;;;;4.54;100.00;96748.69;5099771;28;20394;-79
2023/12/12 04:49:25;;;;;;;5.55;2.75;;;;;;;4.53;100.00;96747.88;5099543;28;20431;-79
2023/12/12 04:51:52;;;;;;;4.75;3.03;;;;;;;4.54;100.00;96730.34;5100162;28;20405;-79
2023/12/12 04:54:18;;;;;;;6.25;3.13;;;;;;;4.56;100.00;96726.47;5100114;28;20405;-80
2023/12/12 04:56:45;;;;;;;3.80;2.92;;;;;;;4.56;100.00;96734.34;5098282;28;20411;-80
2023/12/12 04:59:12;;;;;;;5.20;2.80;;;;;;;4.57;100.00;96733.31;5098668;28;20522;-78
2023/12/12 05:01:38;;;;;;;4.70;2.78;;;;;;;4.58;100.00;96724.41;5097397;28;20394;-79
2023/12/12 05:04:05;;;;;;;5.35;2.83;;;;;;;4.60;100.00;96713.69;5096774;28;20410;-79
2023/12/12 05:06:31;;;;;;;3.42;2.70;;;;;;;4.61;100.00;96712.66;5096088;28;20745;-79
2023/12/12 05:08:57;;;;;;;5.70;3.00;;;;;;;4.63;100.00;96728.97;5096056;28;20397;-79
2023/12/12 05:11:23;;;;;;;4.38;2.80;;;;;;;4.63;100.00;96731.59;5096065;28;20387;-79
2023/12/12 05:13:51;;;;;;;6.28;2.92;;;;;;;4.66;100.00;96734.53;5096284;28;20738;-79
2023/12/12 05:16:17;;;;;;;5.95;2.90;;;;;;;4.73;100.00;96742.31;5098781;28;20417;-79
2023/12/12 05:18:43;;;;;;;4.65;2.80;;;;;;;4.81;100.00;96738.53;5104467;28;20390;-79
2023/12/12 05:21:09;;;;;;;6.50;2.65;;;;;;;4.90;100.00;96735.31;5097164;28;20390;-79
2023/12/12 05:23:35;;;;;;;6.97;3.35;;;;;;;4.98;100.00;96731.53;5094900;28;20436;-79
2023/12/12 05:26:01;;;;;;;6.88;3.10;;;;;;;5.09;100.00;96733.34;5095823;28;20947;-79
2023/12/12 05:28:28;;;;;;;6.47;2.90;;;;;;;5.16;100.00;96735.84;5095410;28;20402;-78
2023/12/12 05:30:55;;;;;;;5.83;2.77;;;;;;;5.20;100.00;96729.06;5094597;28;20476;-79
2023/12/12 05:33:22;;;;;;;4.70;2.50;;;;;;;5.24;100.00;96733.66;5095841;28;20423;-79
2023/12/12 05:35:48;;;;;;;5.03;2.73;;;;;;;5.28;100.00;96734.75;5096178;28;20456;-78
2023/12/12 05:38:15;;;;;;;3.55;2.67;;;;;;;5.30;100.00;96724.03;5095262;28;20899;-79
2023/12/12 05:40:41;;;;;;;2.95;2.22;;;;;;;5.33;100.00;96720.97;5094638;28;20390;-79
2023/12/12 05:43:07;;;;;;;3.78;2.30;;;;;;;5.36;100.00;96717.84;5093825;28;20393;-79
2023/12/12 05:45:33;;;;;;;6.40;2.50;;;;;;;5.36;100.00;96710.78;5095816;28;20438;-79
2023/12/12 05:48:03;;;;;;;4.43;2.03;;;;;;;5.37;100.00;96699.25;5093543;28;20436;-78
2023/12/12 05:50:29;;;;;;;5.88;2.40;;;;;;;5.36;100.00;96702.09;5093156;28;20794;-79
2023/12/12 05:52:55;;;;;;;3.70;2.30;;;;;;;5.35;100.00;96701.31;5093654;28;20402;-78
2023/12/12 05:55:22;;;;;;;4.20;2.13;;;;;;;5.35;100.00;96700.50;5094025;28;20882;-78
2023/12/12 05:57:48;;;;;;;2.78;2.33;;;;;;;5.33;100.00;96705.22;5096838;28;20395;-80
2023/12/12 06:00:15;;;;;;;4.93;2.40;;;;;;;5.33;100.00;96707.84;5096165;28;20394;-79
2023/12/12 06:02:41;;;;;;;2.38;2.00;;;;;;;5.32;100.00;96704.41;5098966;28;20424;-79
2023/12/12 06:05:10;;;;;;;4.03;2.08;;;;;;;5.32;100.00;96706.25;5114014;28;20411;-78
2023/12/12 06:07:37;;;;;;;3.40;2.28;;;;;;;5.27;100.00;96699.06;5113968;28;20392;-78
2023/12/12 06:10:05;;;;;;;3.92;2.13;;;;;;;5.25;100.00;96713.44;5115270;28;20385;-78
2023/12/12 06:12:31;;;;;;;3.80;2.20;;;;;;;5.18;100.00;96702.31;5109901;28;20858;-79
2023/12/12 06:14:57;;;;;;;4.63;2.30;;;;;;;5.16;100.00;96701.72;5096592;28;20406;-80
2023/12/12 06:17:23;;;;;;;4.65;2.22;;;;;;;5.12;100.00;96704.00;5095966;28;20394;-78
2023/12/12 06:19:50;;;;;;;3.80;2.23;;;;;;;5.12;100.00;96713.69;5096102;28;20437;-79
2023/12/12 06:22:17;;;;;;;4.93;2.30;;;;;;;5.12;100.00;96700.59;5098084;28;20393;-78
2023/12/12 06:24:43;;;;;;;3.60;2.13;;;;;;;5.13;100.00;96702.97;5093366;28;20464;-79
2023/12/12 06:27:10;;;;;;;4.63;2.10;;;;;;;5.13;100.00;96695.09;5089987;28;20437;-80
2023/12/12 06:29:36;;;;;;;2.13;1.90;;;;;;;5.15;100.00;96700.94;5093100;28;20420;-79
2023/12/12 06:32:03;;;;;;;3.70;2.20;;;;;;;5.18;100.00;96697.84;5096281;28;20404;-79
2023/12/12 06:34:29;;;;;;;4.30;2.00;;;;;;;5.22;100.00;96703.41;5096314;28;20932;-79
2023/12/12 06:36:55;;;;;;;2.10;1.90;;;;;;;5.28;100.00;96710.34;5095402;28;20402;-80
2023/12/12 06:39:22;;;;;;;5.25;2.17;;;;;;;5.31;100.00;96700.19;5095394;28;20408;-81
2023/12/12 06:41:48;;;;;;;3.17;2.15;;;;;;;5.37;100.00;96685.34;5092954;28;20426;-80
2023/12/12 06:44:15;;;;;;;4.32;2.30;;;;;;;5.43;100.00;96676.50;5102793;28;20416;-80
2023/12/12 06:46:41;;;;;;;3.15;2.00;;;;;;;5.49;100.00;96672.94;5098759;28;20390;-82
2023/12/12 06:49:07;;;;;;;2.28;1.90;;;;;;;5.53;100.00;96671.44;5111509;28;20868;-81
2023/12/12 06:51:35;;;;;;;2.90;2.30;;;;;;;5.57;100.00;96658.63;5111208;28;20400;-79
2023/12/12 06:54:01;;;;;;;2.65;2.10;;;;;;;5.60;100.00;96658.97;5103524;28;20777;-80
2023/12/12 06:56:30;;;;;;;2.30;2.00;;;;;;;5.64;100.00;96656.69;5103698;28;20450;-80
2023/12/12 06:58:57;;;;;;;5.20;2.15;;;;;;;5.66;100.00;96659.84;5106508;28;20392;-80
2023/12/12 07:01:23;;;;;;;4.47;2.23;;;;;;;5.68;100.00;96666.47;5093369;28;20396;-80
2023/12/12 07:03:49;;;;;;;7.25;2.28;;;;;;;5.69;100.00;96662.81;5090669;28;20912;-80
2023/12/12 07:06:19;;;;;;;4.68;2.28;;;;;;;5.72;100.00;96657.06;5090002;28;20441;-79
2023/12/12 07:08:45;;;;;;;10.07;2.80;;;;;;;5.70;100.00;96648.66;5096916;28;20400;-80
2023/12/12 07:11:12;;;;;;;11.95;3.15;;;;;;;5.69;100.00;96660.19;5095923;28;20433;-80
2023/12/12 07:13:39;;;;;;;7.47;2.90;;;;;;;5.79;100.00;96664.78;5112502;28;20396;-80
2023/12/12 07:16:06;;;;;;;7.37;3.10;;;;;;;5.82;100.00;96665.13;5105723;28;20444;-82
2023/12/12 07:18:32;;;;;;;8.67;2.97;;;;;;;5.82;100.00;96666.94;5097262;28;20426;-81
2023/12/12 07:20:58;;;;;;;7.80;3.13;;;;;;;5.90;100.00;96676.28;5096329;28;20743;-80
2023/12/12 07:23:25;;;;;;;9.10;3.00;;;;;;;5.88;100.00;96681.78;5101563;28;20415;-80
2023/12/12 07:25:51;;;;;;;12.27;3.03;;;;;;;5.88;100.00;96680.97;5110978;28;20402;-81
2023/12/12 07:28:17;;;;;;;10.38;3.30;;;;;;;5.90;100.00;96684.16;5108726;28;20398;-79
2023/12/12 07:30:45;;;;;;;8.75;3.30;;;;;;;5.90;100.00;96692.06;5102741;28;20425;-82
2023/12/12 07:33:11;;;;;;;7.55;3.10;;;;;;;5.89;100.00;96693.88;5100424;28;20393;-80
2023/12/12 07:35:37;;;;;;;8.85;3.70;;;;;;;5.84;100.00;96697.19;5107456;28;20388;-80
2023/12/12 07:38:04;;;;;;;11.70;3.05;;;;;;;5.84;100.00;96689.31;5119334;28;20403;-80
2023/12/12 07:40:30;;;;;;;5.15;2.85;;;;;;;5.89;100.00;96674.69;5115712;28;20405;-80
2023/12/12 07:42:57;;;;;;;9.57;3.15;;;;;;;5.90;100.00;96673.66;5126167;28;20399;-80
2023/12/12 07:45:23;;;;;;;8.23;2.75;;;;;;;5.93;100.00;96654.81;5113113;28;20415;-81
2023/12/12 07:47:51;;;;;;;5.78;2.92;;;;;;;5.92;100.00;96651.38;5116096;28;20384;-81
2023/12/12 07:50:17;;;;;;;7.68;3.50;;;;;;;5.93;100.00;96663.50;5112752;28;20473;-79
2023/12/12 07:52:43;;;;;;;7.70;2.60;;;;;;;6.00;100.00;96676.47;5088659;28;20483;-80
2023/12/12 07:55:10;;;;;;;6.30;2.90;;;;;;;6.01;100.00;96678.06;5086515;28;21306;-81
2023/12/12 07:57:36;;;;;;;4.53;2.40;;;;;;;6.07;100.00;96675.25;5092277;28;20398;-82
2023/12/12 08:00:06;;;;;;;4.75;2.55;;;;;;;6.09;100.00;96664.53;5106827;28;20410;-82
2023/12/12 08:02:33;;;;;;;4.00;2.42;;;;;;;6.08;100.00;96655.84;5097653;28;20388;-83
2023/12/12 08:05:00;;;;;;;6.10;2.85;;;;;;;6.08;100.00;96657.66;5105044;28;20410;-81
2023/12/12 08:07:26;;;;;;;4.75;2.53;;;;;;;6.10;100.00;96666.09;5104408;28;20424;-81
2023/12/12 08:09:52;;;;;;;4.43;2.58;;;;;;;6.08;100.00;96661.09;5104196;28;20390;-81
2023/12/12 08:12:18;;;;;;;8.27;3.20;;;;;;;6.06;100.00;96651.84;5105524;28;20416;-81
2023/12/12 08:14:45;;;;;;;6.22;2.85;;;;;;;6.11;100.00;96644.84;5105003;28;20405;-81
2023/12/12 08:17:11;;;;;;;3.45;2.40;;;;;;;6.19;100.00;96648.88;5098377;28;20397;-81
2023/12/12 08:19:38;;;;;;;6.88;2.80;;;;;;;6.21;100.00;96641.56;5091025;28;20500;-81
2023/12/12 08:22:05;;;;;;;8.90;2.65;;;;;;;6.27;100.00;96637.97;5103624;28;20416;-81
2023/12/12 08:24:31;;;;;;;4.00;2.70;;;;;;;6.33;100.00;96629.13;5104942;28;20499;-81
2023/12/12 08:26:57;;;;;;;5.00;2.30;;;;;;;6.41;100.00;96635.78;5091219;28;20886;-80
2023/12/12 08:29:24;;;;;;;9.32;3.00;;;;;;;6.33;100.00;96625.69;5097295;28;20394;-79
2023/12/12 08:31:50;;;;;;;6.00;2.78;;;;;;;6.42;100.00;96606.63;5096857;28;20390;-80
2023/12/12 08:34:16;;;;;;;4.45;2.70;;;;;;;6.46;100.00;96594.63;5097061;28;20402;-79
2023/12/12 08:36:42;;;;;;;5.43;2.67;;;;;;;6.47;100.00;96605.91;5097501;28;20397;-79
2023/12/12 08:39:11;;;;;;;5.95;2.78;;;;;;;6.46;100.00;96596.44;5098029;28;20398;-82
2023/12/12 08:41:38;;;;;;;6.40;3.07;;;;;;;6.47;100.00;96590.13;5103733;28;20398;-81
2023/12/12 08:44:04;;;;;;;4.50;2.50;;;;;;;6.51;100.00;96602.56;5102582;28;20410;-81
2023/12/12 08:46:30;;;;;;;7.43;3.03;;;;;;;6.50;100.00;96597.53;5099703;28;20793;-81
2023/12/12 08:48:57;;;;;;;10.70;3.42;;;;;;;6.41;100.00;96597.16;5100345;28;20423;-82
2023/12/12 08:51:24;;;;;;;6.80;3.65;;;;;;;6.45;100.00;96593.00;5100217;28;20394;-82
2023/12/12 08:53:53;;;;;;;7.65;3.38;;;;;;;6.43;100.00;96597.72;5098837;28;20390;-82
2023/12/12 08:56:21;;;;;;;6.78;3.28;;;;;;;6.53;100.00;96597.06;5084974;28;20410;-81
2023/12/12 08:58:49;;;;;;;7.38;4.00;;;;;;;6.59;100.00;96588.97;5080009;28;20457;-80
2023/12/12 09:01:16;;;;;;;9.25;3.78;;;;;;;6.60;100.00;96585.31;5092848;28;20393;-82
2023/12/12 09:03:42;;;;;;;3.25;2.88;;;;;;;6.70;100.00;96597.75;5099705;28;20509;-80
2023/12/12 09:06:09;;;;;;;3.88;2.67;;;;;;;6.74;100.00;96583.09;5100078;28;20469;-82
2023/12/12 09:08:35;;;;;;;2.83;2.53;;;;;;;6.78;100.00;96593.91;5098296;28;20477;-82
2023/12/12 09:11:02;;;;;;;3.50;2.40;;;;;;;6.80;100.00;96597.09;5099631;28;20398;-82
2023/12/12 09:13:29;;;;;;;3.93;2.57;;;;;;;6.81;100.00;96602.13;5099521;28;20536;-83
2023/12/12 09:15:56;;;;;;;4.78;2.60;;;;;;;6.83;100.00;96600.03;5099282;28;20745;-83
2023/12/12 09:18:22;;;;;;;5.70;2.70;;;;;;;6.84;100.00;96591.09;5105167;28;20770;-82
2023/12/12 09:20:48;;;;;;;7.80;3.92;;;;;;;6.81;100.00;96596.84;5099405;28;20943;-82
2023/12/12 09:23:15;;;;;;;6.10;3.28;;;;;;;6.82;100.00;96595.81;5099504;28;20394;-82
2023/12/12 09:25:41;;;;;;;7.80;3.38;;;;;;;6.78;100.00;96597.34;5099655;28;20402;-81
2023/12/12 09:28:07;;;;;;;6.30;3.40;;;;;;;6.80;100.00;96581.31;5099210;28;20401;-82
2023/12/12 09:30:35;;;;;;;7.40;3.33;;;;;;;6.77;100.00;96572.06;5099151;28;20398;-81
2023/12/12 09:33:01;;;;;;;4.65;3.10;;;;;;;6.81;100.00;96570.56;5099719;28;20875;-82
2023/12/12 09:35:27;;;;;;;6.50;3.10;;;;;;;6.83;100.00;96560.59;5098843;28;20549;-81
2023/12/12 09:37:53;;;;;;;4.95;2.85;;;;;;;6.85;100.00;96557.69;5098244;28;20393;-81
2023/12/12 09:40:20;;;;;;;2.75;2.45;;;;;;;6.85;100.00;96560.31;5100575;28;20451;-82
2023/12/12 09:42:48;;;;;;;3.45;2.55;;;;;;;6.82;100.00;96558.19;5102252;28;20394;-82
2023/12/12 09:45:16;;;;;;;4.90;2.90;;;;;;;6.80;100.00;96563.69;5101603;28;20429;-81
2023/12/12 09:47:44;;;;;;;5.60;2.67;;;;;;;6.75;100.00;96553.13;5101404;28;20435;-81
2023/12/12 09:50:11;;;;;;;3.85;3.03;;;;;;;6.72;100.00;96545.72;5102231;28;20397;-82
2023/12/12 09:52:38;;;;;;;5.13;2.80;;;;;;;6.68;100.00;96544.66;5103095;28;20393;-82
2023/12/12 09:55:06;;;;;;;4.57;2.77;;;;;;;6.67;100.00;96544.88;5100366;28;20389;-81
2023/12/12 09:57:33;;;;;;;9.73;3.13;;;;;;;6.61;100.00;96529.03;5100856;28;20386;-81
2023/12/12 09:59:59;;;;;;;4.55;2.72;;;;;;;6.63;100.00;96530.63;5100892;28;20390;-82
2023/12/12 10:02:31;;;;;;;3.75;2.85;;;;;;;6.61;100.00;96521.16;5100345;28;20402;-82
2023/12/12 10:05:00;;;;;;;2.70;2.45;;;;;;;6.62;100.00;96511.41;5102242;28;20436;-82
2023/12/12 10:07:26;;;;;;;5.25;2.90;;;;;;;6.60;100.00;96511.69;5102495;28;20814;-82
2023/12/12 10:09:52;;;;;;;6.10;3.78;;;;;;;6.58;100.00;96500.63;5103216;28;20393;-81
2023/12/12 10:12:18;;;;;;;14.05;7.40;;;;;;;6.59;100.00;96502.22;5102554;28;20405;-82
2023/12/12 10:14:47;;;;;;;7.25;3.70;;;;;;;6.58;100.00;96503.25;5100924;28;20451;-80
2023/12/12 10:17:14;;;;;;;5.50;3.07;;;;;;;6.59;100.00;96498.78;5101185;28;20772;-82
2023/12/12 10:19:41;;;;;;;4.80;2.42;;;;;;;6.57;100.00;96495.59;5101147;28;20393;-80
2023/12/12 10:22:09;;;;;;;8.90;2.60;;;;;;;6.56;100.00;96489.53;5103626;28;20394;-81
2023/12/12 10:24:36;;;;;;;4.68;2.25;;;;;;;6.57;100.00;96487.72;5101851;28;20424;-81
2023/12/12 10:27:03;;;;;;;4.65;2.42;;;;;;;6.56;100.00;96481.66;5105378;28;20878;-81
2023/12/12 10:29:31;;;;;;;4.00;2.30;;;;;;;6.58;100.00;96487.47;5102459;28;20443;-81
2023/12/12 10:31:58;;;;;;;3.55;2.30;;;;;;;6.60;100.00;96487.22;5112334;28;20394;-81
2023/12/12 10:34:28;;;;;;;3.55;2.33;;;;;;;6.61;100.00;96489.59;5105810;28;20401;-81
2023/12/12 10:36:56;;;;;;;4.20;2.25;;;;;;;6.64;100.00;96475.16;5100351;28;20394;-81
2023/12/12 10:39:30;;;;;;;5.05;2.33;;;;;;;6.66;100.00;96462.56;5101795;28;20394;-81
2023/12/12 10:41:57;;;;;;;3.50;2.17;;;;;;;6.69;100.00;96450.78;5101392;28;20394;-81
2023/12/12 10:44:34;;;;;;;7.03;3.40;;;;;;;6.69;100.00;96430.50;5101750;28;20955;-81
2023/12/12 10:47:02;;;;;;;8.93;4.77;;;;;;;6.70;100.00;96433.91;5103890;28;20414;-81
2023/12/12 10:49:32;;;;;;;9.25;3.30;;;;;;;6.71;100.00;96435.50;5105459;28;20739;-82
2023/12/12 10:52:03;;;;;;;8.43;3.50;;;;;;;6.75;100.00;96429.53;5101686;28;20446;-81
2023/12/12 10:54:33;;;;;;;10.32;2.70;;;;;;;6.82;100.00;96435.38;5096693;28;20391;-81
2023/12/12 10:57:00;;;;;;;10.13;2.97;;;;;;;6.94;100.00;96411.50;5097384;28;20401;-80
2023/12/12 10:59:28;;;;;;;6.95;3.03;;;;;;;7.05;100.00;96421.09;5097739;28;20397;-81
2023/12/12 11:01:56;;;;;;;5.13;2.50;;;;;;;7.12;100.00;96397.19;5106589;28;20392;-81
2023/12/12 11:04:24;;;;;;;6.32;2.55;;;;;;;7.15;100.00;96394.81;5098584;28;20429;-80
2023/12/12 11:06:51;;;;;;;4.22;2.45;;;;;;;7.19;100.00;96393.28;5098491;28;20397;-81
2023/12/12 11:09:18;;;;;;;4.18;2.80;;;;;;;7.24;100.00;96379.34;5098404;28;20386;-81
2023/12/12 11:11:49;;;;;;;5.68;2.67;;;;;;;7.28;100.00;96375.97;5098236;28;20397;-80
2023/12/12 11:14:19;;;;;;;3.50;2.47;;;;;;;7.33;100.00;96375.22;5097641;28;20425;-80
2023/12/12 11:16:47;;;;;;;4.70;2.60;;;;;;;7.39;100.00;96376.81;5098247;28;20398;-80
2023/12/12 11:19:18;;;;;;;3.08;2.22;;;;;;;7.44;100.00;96386.59;5100403;28;20389;-81
2023/12/12 11:21:45;;;;;;;4.15;2.28;;;;;;;7.50;100.00;96389.00;5102993;28;20398;-82
2023/12/12 11:24:12;;;;;;;3.95;2.05;;;;;;;7.54;100.00;96387.44;5100668;28;20425;-80
2023/12/12 11:26:40;;;;;;;4.97;2.05;;;;;;;7.61;100.00;96385.34;5100822;28;20402;-81
2023/12/12 11:29:10;;;;;;;2.30;1.80;;;;;;;7.69;100.00;96384.06;5099378;28;20490;-82
2023/12/12 11:31:37;;;;;;;3.80;1.60;;;;;;;7.76;100.00;96376.72;5102003;28;20398;-80